Dubre, KY (42731)

12:01 PM CDT on July 30, 2016 (GMT -0500)
Center Point Ky | | Change Station

Elev 740 ft 36.72 °N, 85.51 °W | Updated 13 minutes ago

Overcast
Overcast
82.9 °F
Feels Like 89 °F
N
2.7
Wind Variable Wind from North

Today
High -- | Low -- °F
--% Chance of Precip.
Yesterday
High -- | Low -- °F
Precip. -- in
Pressure 30.03 in
Visibility 10.0 miles
Clouds Overcast 1200 ft
Heat Index 89 °F
Dew Point 73 °F
Humidity 72%
Rainfall 0.00 in
Snow Depth Not available.
5:46 AM 7:50 PM
Waning Crescent, 12% visible
METAR KGLW 301635Z AUTO 24003KT 10SM OVC012 25/22 A3003 RMK AO2 T02470215 PWINO
Pressure 30.03 in
Visibility 10.0 miles
Clouds Overcast 1200 ft
Heat Index 89 °F
Dew Point 73 °F
Humidity 72%
Rainfall 0.00 in
Snow Depth Not available.
5:46 AM 7:50 PM
Waning Crescent, 12% visible
METAR KGLW 301635Z AUTO 24003KT 10SM OVC012 25/22 A3003 RMK AO2 T02470215 PWINO

10-Day Weather Forecast

Almanac

Astronomy

Jul. 30, 2016 Rise Set
Actual Time
Civil Twilight
Nautical Twilight
Astronomical Twilight
Moon
Length of Visible Light
Length of Day
Tomorrow will be .
, % of the Moon is Illuminated

Today's Extremes

State Highs State Lows

Community

WunderPhotos

Upload Photos

1,928,598 photos uploaded!

WunderBlog® & News

Nearby

Air Quality

  Air Quality AQ Index Pollutant
Not available.

Snow Depth

Station Depth Elevation

Earthquake Activity

City Distance Mag. Time & Date
Minimum magnitude displayed is 2.5.

Coastal Water Temperatures

Place Temperature

Stations

Nearby Weather Stations

Station Location Temp. Windchill Dew Point Humidity Wind Precip. Elev Updated Type
                   

Watches & Warnings

There are currently no watches in effect.